sensor_id;sensor_type;location;lat;lon;timestamp;P1;durP1;ratioP1;P2;durP2;ratioP2
8540;SDS011;4308;51.294;6.590;2023-02-28T00:00:09;8.63;;;4.53;;
8540;SDS011;4308;51.294;6.590;2023-02-28T00:02:37;7.43;;;5.37;;
8540;SDS011;4308;51.294;6.590;2023-02-28T00:05:05;6.83;;;4.40;;
8540;SDS011;4308;51.294;6.590;2023-02-28T00:07:33;6.57;;;4.57;;
8540;SDS011;4308;51.294;6.590;2023-02-28T00:10:00;10.50;;;4.80;;
8540;SDS011;4308;51.294;6.590;2023-02-28T00:12:28;7.70;;;4.37;;
8540;SDS011;4308;51.294;6.590;2023-02-28T00:14:55;7.70;;;4.37;;
8540;SDS011;4308;51.294;6.590;2023-02-28T00:17:23;7.90;;;4.40;;
8540;SDS011;4308;51.294;6.590;2023-02-28T00:19:51;9.47;;;5.30;;
8540;SDS011;4308;51.294;6.590;2023-02-28T00:22:20;14.70;;;5.60;;
8540;SDS011;4308;51.294;6.590;2023-02-28T00:24:47;8.30;;;4.87;;
8540;SDS011;4308;51.294;6.590;2023-02-28T00:27:15;7.77;;;5.63;;
8540;SDS011;4308;51.294;6.590;2023-02-28T00:29:42;8.23;;;5.60;;
8540;SDS011;4308;51.294;6.590;2023-02-28T00:32:10;9.93;;;5.63;;
8540;SDS011;4308;51.294;6.590;2023-02-28T00:34:37;11.20;;;5.60;;
8540;SDS011;4308;51.294;6.590;2023-02-28T00:37:06;8.87;;;5.23;;
8540;SDS011;4308;51.294;6.590;2023-02-28T00:39:34;10.07;;;5.53;;
8540;SDS011;4308;51.294;6.590;2023-02-28T00:42:02;10.20;;;5.67;;
8540;SDS011;4308;51.294;6.590;2023-02-28T00:44:30;9.37;;;6.03;;
8540;SDS011;4308;51.294;6.590;2023-02-28T00:46:58;10.00;;;5.40;;
8540;SDS011;4308;51.294;6.590;2023-02-28T00:49:26;11.47;;;5.37;;
8540;SDS011;4308;51.294;6.590;2023-02-28T00:51:54;9.93;;;5.53;;
8540;SDS011;4308;51.294;6.590;2023-02-28T00:54:22;7.50;;;4.40;;
8540;SDS011;4308;51.294;6.590;2023-02-28T00:56:50;8.30;;;5.43;;
8540;SDS011;4308;51.294;6.590;2023-02-28T00:59:17;8.43;;;5.33;;
8540;SDS011;4308;51.294;6.590;2023-02-28T01:01:45;8.00;;;5.43;;
8540;SDS011;4308;51.294;6.590;2023-02-28T01:04:13;7.37;;;4.57;;
8540;SDS011;4308;51.294;6.590;2023-02-28T01:06:41;8.63;;;5.40;;
8540;SDS011;4308;51.294;6.590;2023-02-28T01:09:09;9.87;;;4.73;;
8540;SDS011;4308;51.294;6.590;2023-02-28T01:11:37;6.43;;;4.17;;
8540;SDS011;4308;51.294;6.590;2023-02-28T01:14:05;6.30;;;4.00;;
8540;SDS011;4308;51.294;6.590;2023-02-28T01:16:32;8.00;;;4.23;;
8540;SDS011;4308;51.294;6.590;2023-02-28T01:19:00;7.90;;;4.23;;
8540;SDS011;4308;51.294;6.590;2023-02-28T01:21:28;6.80;;;3.43;;
8540;SDS011;4308;51.294;6.590;2023-02-28T01:23:56;2.87;;;2.60;;
8540;SDS011;4308;51.294;6.590;2023-02-28T01:26:24;6.67;;;3.20;;
8540;SDS011;4308;51.294;6.590;2023-02-28T01:28:52;8.77;;;4.50;;
8540;SDS011;4308;51.294;6.590;2023-02-28T01:31:20;6.73;;;4.63;;
8540;SDS011;4308;51.294;6.590;2023-02-28T01:33:48;6.17;;;3.77;;
8540;SDS011;4308;51.294;6.590;2023-02-28T01:36:17;4.33;;;3.00;;
8540;SDS011;4308;51.294;6.590;2023-02-28T01:38:45;6.73;;;4.10;;
8540;SDS011;4308;51.294;6.590;2023-02-28T01:41:15;9.17;;;3.97;;
8540;SDS011;4308;51.294;6.590;2023-02-28T01:46:11;11.90;;;4.33;;
8540;SDS011;4308;51.294;6.590;2023-02-28T01:48:40;5.63;;;2.70;;
8540;SDS011;4308;51.294;6.590;2023-02-28T01:51:14;7.77;;;4.30;;
8540;SDS011;4308;51.294;6.590;2023-02-28T01:53:45;8.40;;;4.57;;
8540;SDS011;4308;51.294;6.590;2023-02-28T01:56:16;7.90;;;4.27;;
8540;SDS011;4308;51.294;6.590;2023-02-28T01:58:45;6.30;;;4.07;;
8540;SDS011;4308;51.294;6.590;2023-02-28T02:01:12;4.47;;;3.33;;
8540;SDS011;4308;51.294;6.590;2023-02-28T02:03:40;10.47;;;5.10;;
8540;SDS011;4308;51.294;6.590;2023-02-28T02:06:08;12.90;;;5.17;;
8540;SDS011;4308;51.294;6.590;2023-02-28T02:08:35;8.23;;;4.03;;
8540;SDS011;4308;51.294;6.590;2023-02-28T02:11:03;6.63;;;4.10;;
8540;SDS011;4308;51.294;6.590;2023-02-28T02:26:39;7.13;;;4.37;;
8540;SDS011;4308;51.294;6.590;2023-02-28T02:36:42;7.97;;;4.63;;
8540;SDS011;4308;51.294;6.590;2023-02-28T02:41:43;4.10;;;3.17;;
8540;SDS011;4308;51.294;6.590;2023-02-28T02:47:08;5.93;;;4.40;;
8540;SDS011;4308;51.294;6.590;2023-02-28T02:49:37;2.50;;;2.17;;
8540;SDS011;4308;51.294;6.590;2023-02-28T02:52:07;6.00;;;3.73;;
8540;SDS011;4308;51.294;6.590;2023-02-28T02:54:36;7.13;;;3.90;;
8540;SDS011;4308;51.294;6.590;2023-02-28T02:57:08;8.10;;;3.90;;
8540;SDS011;4308;51.294;6.590;2023-02-28T02:59:38;5.93;;;3.97;;
8540;SDS011;4308;51.294;6.590;2023-02-28T03:02:08;6.47;;;4.10;;
8540;SDS011;4308;51.294;6.590;2023-02-28T03:04:42;6.27;;;4.30;;
8540;SDS011;4308;51.294;6.590;2023-02-28T03:07:10;9.53;;;4.87;;
8540;SDS011;4308;51.294;6.590;2023-02-28T03:09:38;8.70;;;4.63;;
8540;SDS011;4308;51.294;6.590;2023-02-28T03:12:06;6.37;;;4.60;;
8540;SDS011;4308;51.294;6.590;2023-02-28T03:14:56;7.40;;;4.97;;
8540;SDS011;4308;51.294;6.590;2023-02-28T03:20:18;5.37;;;4.33;;
8540;SDS011;4308;51.294;6.590;2023-02-28T03:23:01;9.23;;;5.23;;
8540;SDS011;4308;51.294;6.590;2023-02-28T03:31:07;11.60;;;5.23;;
8540;SDS011;4308;51.294;6.590;2023-02-28T03:34:12;9.33;;;5.03;;
8540;SDS011;4308;51.294;6.590;2023-02-28T03:36:38;10.00;;;4.10;;
8540;SDS011;4308;51.294;6.590;2023-02-28T03:39:07;6.77;;;3.77;;
8540;SDS011;4308;51.294;6.590;2023-02-28T03:41:37;10.73;;;4.67;;
8540;SDS011;4308;51.294;6.590;2023-02-28T03:44:15;9.30;;;5.30;;
8540;SDS011;4308;51.294;6.590;2023-02-28T03:49:40;10.43;;;4.87;;
8540;SDS011;4308;51.294;6.590;2023-02-28T03:52:10;8.27;;;4.40;;
8540;SDS011;4308;51.294;6.590;2023-02-28T03:54:40;8.03;;;4.03;;
8540;SDS011;4308;51.294;6.590;2023-02-28T03:57:13;5.17;;;3.27;;
8540;SDS011;4308;51.294;6.590;2023-02-28T04:00:03;7.93;;;4.63;;
8540;SDS011;4308;51.294;6.590;2023-02-28T04:02:31;8.07;;;4.20;;
8540;SDS011;4308;51.294;6.590;2023-02-28T04:04:59;5.37;;;3.83;;
8540;SDS011;4308;51.294;6.590;2023-02-28T04:07:30;5.77;;;2.90;;
8540;SDS011;4308;51.294;6.590;2023-02-28T04:09:58;6.10;;;3.23;;
8540;SDS011;4308;51.294;6.590;2023-02-28T04:12:26;6.40;;;3.30;;
8540;SDS011;4308;51.294;6.590;2023-02-28T04:14:53;9.63;;;3.30;;
8540;SDS011;4308;51.294;6.590;2023-02-28T04:17:21;3.87;;;2.67;;
8540;SDS011;4308;51.294;6.590;2023-02-28T04:19:48;3.87;;;2.93;;
8540;SDS011;4308;51.294;6.590;2023-02-28T04:22:16;5.47;;;2.93;;
8540;SDS011;4308;51.294;6.590;2023-02-28T04:24:43;3.93;;;3.20;;
8540;SDS011;4308;51.294;6.590;2023-02-28T04:27:11;4.20;;;2.80;;
8540;SDS011;4308;51.294;6.590;2023-02-28T04:29:39;6.67;;;3.87;;
8540;SDS011;4308;51.294;6.590;2023-02-28T04:32:06;6.83;;;3.57;;
8540;SDS011;4308;51.294;6.590;2023-02-28T04:34:34;4.00;;;2.60;;
8540;SDS011;4308;51.294;6.590;2023-02-28T04:37:02;7.00;;;3.10;;
8540;SDS011;4308;51.294;6.590;2023-02-28T04:39:39;5.20;;;2.57;;
8540;SDS011;4308;51.294;6.590;2023-02-28T04:42:08;4.43;;;2.90;;
8540;SDS011;4308;51.294;6.590;2023-02-28T04:44:35;5.13;;;2.63;;
8540;SDS011;4308;51.294;6.590;2023-02-28T04:47:03;2.70;;;2.23;;
8540;SDS011;4308;51.294;6.590;2023-02-28T04:49:30;7.43;;;2.50;;
8540;SDS011;4308;51.294;6.590;2023-02-28T04:51:58;2.23;;;1.87;;
8540;SDS011;4308;51.294;6.590;2023-02-28T04:54:25;5.57;;;2.60;;
8540;SDS011;4308;51.294;6.590;2023-02-28T04:56:53;6.20;;;2.47;;
8540;SDS011;4308;51.294;6.590;2023-02-28T04:59:21;3.97;;;2.57;;
8540;SDS011;4308;51.294;6.590;2023-02-28T05:01:48;3.27;;;2.60;;
8540;SDS011;4308;51.294;6.590;2023-02-28T05:04:16;4.63;;;2.37;;
8540;SDS011;4308;51.294;6.590;2023-02-28T05:06:44;2.70;;;2.00;;
8540;SDS011;4308;51.294;6.590;2023-02-28T05:09:11;3.33;;;2.57;;
8540;SDS011;4308;51.294;6.590;2023-02-28T05:11:39;3.27;;;2.53;;
8540;SDS011;4308;51.294;6.590;2023-02-28T05:14:09;4.63;;;2.93;;
8540;SDS011;4308;51.294;6.590;2023-02-28T05:16:38;3.70;;;2.80;;
8540;SDS011;4308;51.294;6.590;2023-02-28T05:19:05;3.30;;;2.17;;
8540;SDS011;4308;51.294;6.590;2023-02-28T05:21:34;2.03;;;1.80;;
8540;SDS011;4308;51.294;6.590;2023-02-28T05:24:03;3.80;;;2.57;;
8540;SDS011;4308;51.294;6.590;2023-02-28T05:26:33;8.50;;;2.43;;
8540;SDS011;4308;51.294;6.590;2023-02-28T05:29:01;5.27;;;2.63;;
8540;SDS011;4308;51.294;6.590;2023-02-28T05:31:29;2.13;;;1.87;;
8540;SDS011;4308;51.294;6.590;2023-02-28T05:33:57;4.40;;;2.60;;
8540;SDS011;4308;51.294;6.590;2023-02-28T05:36:25;2.93;;;2.13;;
8540;SDS011;4308;51.294;6.590;2023-02-28T05:38:52;3.70;;;2.33;;
8540;SDS011;4308;51.294;6.590;2023-02-28T05:41:20;4.93;;;2.10;;
8540;SDS011;4308;51.294;6.590;2023-02-28T05:43:48;2.87;;;1.80;;
8540;SDS011;4308;51.294;6.590;2023-02-28T05:46:16;5.80;;;2.30;;
8540;SDS011;4308;51.294;6.590;2023-02-28T05:48:45;5.30;;;2.20;;
8540;SDS011;4308;51.294;6.590;2023-02-28T05:51:13;3.70;;;2.13;;
8540;SDS011;4308;51.294;6.590;2023-02-28T05:53:40;2.30;;;1.93;;
8540;SDS011;4308;51.294;6.590;2023-02-28T05:56:08;4.80;;;2.77;;
8540;SDS011;4308;51.294;6.590;2023-02-28T05:58:35;3.17;;;2.47;;
8540;SDS011;4308;51.294;6.590;2023-02-28T06:03:49;3.77;;;2.27;;
8540;SDS011;4308;51.294;6.590;2023-02-28T06:06:17;2.83;;;2.43;;
8540;SDS011;4308;51.294;6.590;2023-02-28T06:08:44;5.40;;;1.87;;
8540;SDS011;4308;51.294;6.590;2023-02-28T06:11:12;2.57;;;2.37;;
8540;SDS011;4308;51.294;6.590;2023-02-28T06:13:40;2.60;;;2.30;;
8540;SDS011;4308;51.294;6.590;2023-02-28T06:16:08;2.63;;;2.17;;
8540;SDS011;4308;51.294;6.590;2023-02-28T06:18:37;4.60;;;2.83;;
8540;SDS011;4308;51.294;6.590;2023-02-28T06:21:05;3.50;;;2.80;;
8540;SDS011;4308;51.294;6.590;2023-02-28T06:23:32;4.40;;;3.40;;
8540;SDS011;4308;51.294;6.590;2023-02-28T06:26:00;6.30;;;3.40;;
8540;SDS011;4308;51.294;6.590;2023-02-28T06:28:28;2.97;;;2.50;;
8540;SDS011;4308;51.294;6.590;2023-02-28T06:30:55;2.87;;;2.00;;
8540;SDS011;4308;51.294;6.590;2023-02-28T06:33:23;4.00;;;2.77;;
8540;SDS011;4308;51.294;6.590;2023-02-28T06:35:50;3.93;;;2.93;;
8540;SDS011;4308;51.294;6.590;2023-02-28T06:38:18;6.23;;;2.80;;
8540;SDS011;4308;51.294;6.590;2023-02-28T06:40:52;5.30;;;2.30;;
8540;SDS011;4308;51.294;6.590;2023-02-28T06:43:20;4.83;;;3.13;;
8540;SDS011;4308;51.294;6.590;2023-02-28T06:45:48;3.17;;;2.87;;
8540;SDS011;4308;51.294;6.590;2023-02-28T06:48:15;3.07;;;2.27;;
8540;SDS011;4308;51.294;6.590;2023-02-28T06:50:43;3.03;;;2.23;;
8540;SDS011;4308;51.294;6.590;2023-02-28T06:53:11;4.73;;;2.90;;
8540;SDS011;4308;51.294;6.590;2023-02-28T06:55:39;10.17;;;4.00;;
8540;SDS011;4308;51.294;6.590;2023-02-28T06:58:06;5.77;;;3.07;;
8540;SDS011;4308;51.294;6.590;2023-02-28T07:00:34;3.37;;;3.03;;
8540;SDS011;4308;51.294;6.590;2023-02-28T07:03:01;3.27;;;2.20;;
8540;SDS011;4308;51.294;6.590;2023-02-28T07:05:29;9.47;;;3.10;;
8540;SDS011;4308;51.294;6.590;2023-02-28T07:07:56;9.83;;;4.63;;
8540;SDS011;4308;51.294;6.590;2023-02-28T07:10:24;11.10;;;3.53;;
8540;SDS011;4308;51.294;6.590;2023-02-28T07:12:52;5.90;;;3.83;;
8540;SDS011;4308;51.294;6.590;2023-02-28T07:15:19;6.33;;;3.40;;
8540;SDS011;4308;51.294;6.590;2023-02-28T07:17:47;3.47;;;1.70;;
8540;SDS011;4308;51.294;6.590;2023-02-28T07:20:14;4.43;;;2.20;;
8540;SDS011;4308;51.294;6.590;2023-02-28T07:22:42;2.90;;;2.60;;
8540;SDS011;4308;51.294;6.590;2023-02-28T07:25:09;5.17;;;3.13;;
8540;SDS011;4308;51.294;6.590;2023-02-28T07:27:37;4.43;;;3.17;;
8540;SDS011;4308;51.294;6.590;2023-02-28T07:30:05;3.13;;;2.50;;
8540;SDS011;4308;51.294;6.590;2023-02-28T07:32:32;7.57;;;3.80;;
8540;SDS011;4308;51.294;6.590;2023-02-28T07:35:00;5.57;;;2.67;;
8540;SDS011;4308;51.294;6.590;2023-02-28T07:37:27;8.07;;;3.20;;
8540;SDS011;4308;51.294;6.590;2023-02-28T07:39:55;5.90;;;2.30;;
8540;SDS011;4308;51.294;6.590;2023-02-28T07:42:22;3.57;;;2.70;;
8540;SDS011;4308;51.294;6.590;2023-02-28T07:44:50;5.37;;;2.30;;
8540;SDS011;4308;51.294;6.590;2023-02-28T07:47:18;4.37;;;2.57;;
8540;SDS011;4308;51.294;6.590;2023-02-28T07:49:45;3.00;;;2.40;;
8540;SDS011;4308;51.294;6.590;2023-02-28T07:52:13;4.77;;;3.07;;
8540;SDS011;4308;51.294;6.590;2023-02-28T07:54:40;2.30;;;2.10;;
8540;SDS011;4308;51.294;6.590;2023-02-28T07:57:08;6.47;;;2.70;;
8540;SDS011;4308;51.294;6.590;2023-02-28T07:59:35;3.87;;;2.40;;
8540;SDS011;4308;51.294;6.590;2023-02-28T08:02:03;2.80;;;2.20;;
8540;SDS011;4308;51.294;6.590;2023-02-28T08:04:33;2.23;;;2.00;;
8540;SDS011;4308;51.294;6.590;2023-02-28T08:07:01;5.40;;;2.87;;
8540;SDS011;4308;51.294;6.590;2023-02-28T08:09:29;2.97;;;2.17;;
8540;SDS011;4308;51.294;6.590;2023-02-28T08:11:56;6.20;;;1.90;;
8540;SDS011;4308;51.294;6.590;2023-02-28T08:14:24;2.77;;;2.50;;
8540;SDS011;4308;51.294;6.590;2023-02-28T08:16:51;2.43;;;1.77;;
8540;SDS011;4308;51.294;6.590;2023-02-28T08:19:19;3.10;;;2.17;;
8540;SDS011;4308;51.294;6.590;2023-02-28T08:21:46;2.90;;;2.43;;
8540;SDS011;4308;51.294;6.590;2023-02-28T08:24:14;2.27;;;1.97;;
8540;SDS011;4308;51.294;6.590;2023-02-28T08:26:42;3.07;;;2.37;;
8540;SDS011;4308;51.294;6.590;2023-02-28T08:29:09;3.23;;;1.93;;
8540;SDS011;4308;51.294;6.590;2023-02-28T08:31:37;3.43;;;1.87;;
8540;SDS011;4308;51.294;6.590;2023-02-28T08:34:11;2.53;;;2.20;;
8540;SDS011;4308;51.294;6.590;2023-02-28T08:36:40;2.77;;;1.80;;
8540;SDS011;4308;51.294;6.590;2023-02-28T08:39:07;3.47;;;2.50;;
8540;SDS011;4308;51.294;6.590;2023-02-28T08:41:35;3.43;;;2.37;;
8540;SDS011;4308;51.294;6.590;2023-02-28T08:44:03;3.03;;;2.50;;
8540;SDS011;4308;51.294;6.590;2023-02-28T08:46:30;1.87;;;1.70;;
8540;SDS011;4308;51.294;6.590;2023-02-28T08:48:58;3.53;;;2.47;;
8540;SDS011;4308;51.294;6.590;2023-02-28T08:51:26;3.67;;;2.28;;
8540;SDS011;4308;51.294;6.590;2023-02-28T08:54:00;5.23;;;2.70;;
8540;SDS011;4308;51.294;6.590;2023-02-28T08:56:28;3.03;;;2.03;;
8540;SDS011;4308;51.294;6.590;2023-02-28T08:58:56;2.03;;;1.80;;
8540;SDS011;4308;51.294;6.590;2023-02-28T09:01:25;2.17;;;1.77;;
8540;SDS011;4308;51.294;6.590;2023-02-28T09:03:53;3.83;;;1.93;;
8540;SDS011;4308;51.294;6.590;2023-02-28T09:06:23;3.40;;;2.73;;
8540;SDS011;4308;51.294;6.590;2023-02-28T09:08:51;2.30;;;2.07;;
8540;SDS011;4308;51.294;6.590;2023-02-28T09:11:19;3.03;;;2.23;;
8540;SDS011;4308;51.294;6.590;2023-02-28T09:13:46;3.73;;;1.97;;
8540;SDS011;4308;51.294;6.590;2023-02-28T09:16:14;3.03;;;1.60;;
8540;SDS011;4308;51.294;6.590;2023-02-28T09:18:43;2.33;;;1.70;;
8540;SDS011;4308;51.294;6.590;2023-02-28T09:21:11;2.23;;;1.80;;
8540;SDS011;4308;51.294;6.590;2023-02-28T09:23:40;3.20;;;1.93;;
8540;SDS011;4308;51.294;6.590;2023-02-28T09:26:11;3.63;;;1.70;;
8540;SDS011;4308;51.294;6.590;2023-02-28T09:28:39;2.13;;;1.93;;
8540;SDS011;4308;51.294;6.590;2023-02-28T09:31:10;1.83;;;1.70;;
8540;SDS011;4308;51.294;6.590;2023-02-28T09:33:39;1.90;;;1.70;;
8540;SDS011;4308;51.294;6.590;2023-02-28T09:36:06;3.90;;;2.27;;
8540;SDS011;4308;51.294;6.590;2023-02-28T09:38:36;4.63;;;2.30;;
8540;SDS011;4308;51.294;6.590;2023-02-28T09:41:09;4.13;;;1.80;;
8540;SDS011;4308;51.294;6.590;2023-02-28T09:43:38;3.00;;;2.23;;
8540;SDS011;4308;51.294;6.590;2023-02-28T09:46:18;5.90;;;1.80;;
8540;SDS011;4308;51.294;6.590;2023-02-28T09:48:49;2.67;;;2.33;;
8540;SDS011;4308;51.294;6.590;2023-02-28T09:53:45;3.70;;;1.70;;
8540;SDS011;4308;51.294;6.590;2023-02-28T09:56:24;2.13;;;1.70;;
8540;SDS011;4308;51.294;6.590;2023-02-28T10:01:39;1.70;;;1.60;;
8540;SDS011;4308;51.294;6.590;2023-02-28T10:04:22;2.07;;;1.63;;
8540;SDS011;4308;51.294;6.590;2023-02-28T10:06:56;2.63;;;2.43;;
8540;SDS011;4308;51.294;6.590;2023-02-28T10:09:24;1.63;;;1.30;;
8540;SDS011;4308;51.294;6.590;2023-02-28T10:11:54;2.43;;;1.87;;
8540;SDS011;4308;51.294;6.590;2023-02-28T10:14:26;2.03;;;1.43;;
8540;SDS011;4308;51.294;6.590;2023-02-28T10:16:56;2.00;;;1.60;;
8540;SDS011;4308;51.294;6.590;2023-02-28T10:19:26;2.50;;;1.80;;
8540;SDS011;4308;51.294;6.590;2023-02-28T10:21:59;3.30;;;2.00;;
8540;SDS011;4308;51.294;6.590;2023-02-28T10:27:01;4.50;;;1.87;;
8540;SDS011;4308;51.294;6.590;2023-02-28T10:29:34;4.93;;;1.60;;
8540;SDS011;4308;51.294;6.590;2023-02-28T10:32:02;2.00;;;1.70;;
8540;SDS011;4308;51.294;6.590;2023-02-28T10:34:31;1.73;;;1.47;;
8540;SDS011;4308;51.294;6.590;2023-02-28T10:36:58;2.47;;;2.23;;
8540;SDS011;4308;51.294;6.590;2023-02-28T10:42:03;2.87;;;1.93;;
8540;SDS011;4308;51.294;6.590;2023-02-28T10:44:31;1.93;;;1.40;;
8540;SDS011;4308;51.294;6.590;2023-02-28T10:46:59;3.40;;;1.53;;
8540;SDS011;4308;51.294;6.590;2023-02-28T10:49:27;2.20;;;1.47;;
8540;SDS011;4308;51.294;6.590;2023-02-28T10:51:56;2.27;;;1.60;;
8540;SDS011;4308;51.294;6.590;2023-02-28T10:54:34;2.20;;;1.63;;
8540;SDS011;4308;51.294;6.590;2023-02-28T10:57:21;2.70;;;1.70;;
8540;SDS011;4308;51.294;6.590;2023-02-28T10:59:53;2.20;;;1.70;;
8540;SDS011;4308;51.294;6.590;2023-02-28T11:05:00;2.20;;;1.67;;
8540;SDS011;4308;51.294;6.590;2023-02-28T11:07:28;2.13;;;1.80;;
8540;SDS011;4308;51.294;6.590;2023-02-28T11:10:07;2.00;;;1.80;;
8540;SDS011;4308;51.294;6.590;2023-02-28T11:12:38;1.93;;;1.40;;
8540;SDS011;4308;51.294;6.590;2023-02-28T11:15:24;1.60;;;1.50;;
8540;SDS011;4308;51.294;6.590;2023-02-28T11:17:57;2.27;;;1.70;;
8540;SDS011;4308;51.294;6.590;2023-02-28T11:20:27;2.20;;;1.50;;
8540;SDS011;4308;51.294;6.590;2023-02-28T11:22:56;1.87;;;1.77;;
8540;SDS011;4308;51.294;6.590;2023-02-28T11:27:58;2.23;;;1.73;;
8540;SDS011;4308;51.294;6.590;2023-02-28T11:30:27;1.53;;;1.40;;
8540;SDS011;4308;51.294;6.590;2023-02-28T11:32:55;3.23;;;1.60;;
8540;SDS011;4308;51.294;6.590;2023-02-28T11:35:36;3.67;;;1.60;;
8540;SDS011;4308;51.294;6.590;2023-02-28T11:38:09;3.60;;;1.53;;
8540;SDS011;4308;51.294;6.590;2023-02-28T11:45:47;2.07;;;1.87;;
8540;SDS011;4308;51.294;6.590;2023-02-28T11:48:20;3.03;;;1.97;;
8540;SDS011;4308;51.294;6.590;2023-02-28T11:50:55;2.20;;;1.97;;
8540;SDS011;4308;51.294;6.590;2023-02-28T11:55:59;4.93;;;3.27;;
8540;SDS011;4308;51.294;6.590;2023-02-28T12:06:21;2.60;;;1.80;;
8540;SDS011;4308;51.294;6.590;2023-02-28T12:09:04;4.60;;;2.47;;
8540;SDS011;4308;51.294;6.590;2023-02-28T12:24:55;5.10;;;3.17;;
8540;SDS011;4308;51.294;6.590;2023-02-28T12:27:28;3.50;;;2.60;;
8540;SDS011;4308;51.294;6.590;2023-02-28T12:29:58;2.00;;;1.60;;
8540;SDS011;4308;51.294;6.590;2023-02-28T12:32:32;2.23;;;2.00;;
8540;SDS011;4308;51.294;6.590;2023-02-28T12:35:02;2.87;;;1.70;;
8540;SDS011;4308;51.294;6.590;2023-02-28T12:37:34;2.47;;;2.20;;
8540;SDS011;4308;51.294;6.590;2023-02-28T12:40:05;1.80;;;1.70;;
8540;SDS011;4308;51.294;6.590;2023-02-28T12:42:39;2.37;;;1.50;;
8540;SDS011;4308;51.294;6.590;2023-02-28T12:45:11;2.30;;;1.93;;
8540;SDS011;4308;51.294;6.590;2023-02-28T12:47:41;2.00;;;1.80;;
8540;SDS011;4308;51.294;6.590;2023-02-28T12:50:10;1.80;;;1.70;;
8540;SDS011;4308;51.294;6.590;2023-02-28T12:55:18;4.27;;;2.20;;
8540;SDS011;4308;51.294;6.590;2023-02-28T12:57:48;2.30;;;2.10;;
8540;SDS011;4308;51.294;6.590;2023-02-28T13:00:18;2.60;;;1.97;;
8540;SDS011;4308;51.294;6.590;2023-02-28T13:10:43;2.50;;;2.00;;
8540;SDS011;4308;51.294;6.590;2023-02-28T13:13:21;2.27;;;2.03;;
8540;SDS011;4308;51.294;6.590;2023-02-28T13:16:10;3.37;;;2.07;;
8540;SDS011;4308;51.294;6.590;2023-02-28T13:18:44;1.67;;;1.57;;
8540;SDS011;4308;51.294;6.590;2023-02-28T13:21:24;4.17;;;2.03;;
8540;SDS011;4308;51.294;6.590;2023-02-28T13:24:03;2.17;;;1.67;;
8540;SDS011;4308;51.294;6.590;2023-02-28T13:34:29;2.57;;;2.00;;
8540;SDS011;4308;51.294;6.590;2023-02-28T13:39:58;3.07;;;1.57;;
8540;SDS011;4308;51.294;6.590;2023-02-28T13:42:36;4.93;;;2.47;;
8540;SDS011;4308;51.294;6.590;2023-02-28T13:55:32;5.47;;;2.20;;
8540;SDS011;4308;51.294;6.590;2023-02-28T13:58:09;2.10;;;1.90;;
8540;SDS011;4308;51.294;6.590;2023-02-28T14:03:30;3.17;;;2.50;;
8540;SDS011;4308;51.294;6.590;2023-02-28T14:08:59;2.30;;;2.10;;
8540;SDS011;4308;51.294;6.590;2023-02-28T14:11:35;1.70;;;1.50;;
8540;SDS011;4308;51.294;6.590;2023-02-28T14:14:03;1.93;;;1.60;;
8540;SDS011;4308;51.294;6.590;2023-02-28T14:16:41;3.33;;;2.03;;
8540;SDS011;4308;51.294;6.590;2023-02-28T14:19:15;2.70;;;2.13;;
8540;SDS011;4308;51.294;6.590;2023-02-28T14:27:15;3.63;;;2.23;;
8540;SDS011;4308;51.294;6.590;2023-02-28T14:32:33;3.73;;;2.60;;
8540;SDS011;4308;51.294;6.590;2023-02-28T14:35:05;2.97;;;2.37;;
8540;SDS011;4308;51.294;6.590;2023-02-28T14:37:41;4.03;;;2.60;;
8540;SDS011;4308;51.294;6.590;2023-02-28T14:40:14;3.87;;;2.30;;
8540;SDS011;4308;51.294;6.590;2023-02-28T14:42:46;2.67;;;1.90;;
8540;SDS011;4308;51.294;6.590;2023-02-28T14:45:18;3.57;;;2.43;;
8540;SDS011;4308;51.294;6.590;2023-02-28T14:47:45;2.10;;;1.90;;
8540;SDS011;4308;51.294;6.590;2023-02-28T14:50:21;2.47;;;2.27;;
8540;SDS011;4308;51.294;6.590;2023-02-28T14:52:52;3.23;;;2.30;;
8540;SDS011;4308;51.294;6.590;2023-02-28T14:55:23;2.07;;;1.67;;
8540;SDS011;4308;51.294;6.590;2023-02-28T14:57:55;1.80;;;1.70;;
8540;SDS011;4308;51.294;6.590;2023-02-28T15:00:25;2.47;;;2.27;;
8540;SDS011;4308;51.294;6.590;2023-02-28T15:02:53;2.13;;;1.93;;
8540;SDS011;4308;51.294;6.590;2023-02-28T15:05:26;3.43;;;2.40;;
8540;SDS011;4308;51.294;6.590;2023-02-28T15:08:01;2.60;;;2.20;;
8540;SDS011;4308;51.294;6.590;2023-02-28T15:10:29;2.33;;;2.23;;
8540;SDS011;4308;51.294;6.590;2023-02-28T15:12:58;2.33;;;2.13;;
8540;SDS011;4308;51.294;6.590;2023-02-28T15:18:29;2.33;;;2.00;;
8540;SDS011;4308;51.294;6.590;2023-02-28T15:20:59;2.73;;;2.03;;
8540;SDS011;4308;51.294;6.590;2023-02-28T15:23:30;4.23;;;2.57;;
8540;SDS011;4308;51.294;6.590;2023-02-28T15:25:58;5.00;;;2.13;;
8540;SDS011;4308;51.294;6.590;2023-02-28T15:28:26;3.83;;;2.47;;
8540;SDS011;4308;51.294;6.590;2023-02-28T15:31:01;2.20;;;2.00;;
8540;SDS011;4308;51.294;6.590;2023-02-28T15:33:30;3.90;;;2.27;;
8540;SDS011;4308;51.294;6.590;2023-02-28T15:36:15;2.20;;;2.00;;
8540;SDS011;4308;51.294;6.590;2023-02-28T15:38:43;4.33;;;2.93;;
8540;SDS011;4308;51.294;6.590;2023-02-28T15:41:21;4.20;;;2.47;;
8540;SDS011;4308;51.294;6.590;2023-02-28T15:43:49;3.17;;;2.90;;
8540;SDS011;4308;51.294;6.590;2023-02-28T15:46:44;3.07;;;2.77;;
8540;SDS011;4308;51.294;6.590;2023-02-28T15:49:16;3.93;;;2.37;;
8540;SDS011;4308;51.294;6.590;2023-02-28T15:51:46;2.90;;;2.60;;
8540;SDS011;4308;51.294;6.590;2023-02-28T15:54:24;4.13;;;3.50;;
8540;SDS011;4308;51.294;6.590;2023-02-28T15:56:57;4.70;;;2.70;;
8540;SDS011;4308;51.294;6.590;2023-02-28T15:59:28;2.60;;;2.27;;
8540;SDS011;4308;51.294;6.590;2023-02-28T16:04:36;3.47;;;2.67;;
8540;SDS011;4308;51.294;6.590;2023-02-28T16:07:05;3.07;;;2.70;;
8540;SDS011;4308;51.294;6.590;2023-02-28T16:09:32;3.27;;;2.70;;
8540;SDS011;4308;51.294;6.590;2023-02-28T16:12:01;2.50;;;2.30;;
8540;SDS011;4308;51.294;6.590;2023-02-28T16:14:29;2.10;;;1.97;;
8540;SDS011;4308;51.294;6.590;2023-02-28T16:17:04;2.60;;;2.20;;
8540;SDS011;4308;51.294;6.590;2023-02-28T16:19:32;2.77;;;2.00;;
8540;SDS011;4308;51.294;6.590;2023-02-28T16:22:03;5.10;;;2.50;;
8540;SDS011;4308;51.294;6.590;2023-02-28T16:24:30;4.17;;;2.30;;
8540;SDS011;4308;51.294;6.590;2023-02-28T16:26:58;2.60;;;2.40;;
8540;SDS011;4308;51.294;6.590;2023-02-28T16:29:26;3.30;;;3.00;;
8540;SDS011;4308;51.294;6.590;2023-02-28T16:31:55;2.83;;;2.50;;
8540;SDS011;4308;51.294;6.590;2023-02-28T16:34:23;3.17;;;2.67;;
8540;SDS011;4308;51.294;6.590;2023-02-28T16:36:51;3.43;;;2.70;;
8540;SDS011;4308;51.294;6.590;2023-02-28T16:39:19;4.33;;;2.60;;
8540;SDS011;4308;51.294;6.590;2023-02-28T16:41:46;3.63;;;3.00;;
8540;SDS011;4308;51.294;6.590;2023-02-28T16:44:24;4.57;;;3.50;;
8540;SDS011;4308;51.294;6.590;2023-02-28T16:46:53;3.30;;;3.00;;
8540;SDS011;4308;51.294;6.590;2023-02-28T16:49:21;2.87;;;2.23;;
8540;SDS011;4308;51.294;6.590;2023-02-28T16:51:49;3.17;;;2.67;;
8540;SDS011;4308;51.294;6.590;2023-02-28T16:54:16;4.70;;;2.87;;
8540;SDS011;4308;51.294;6.590;2023-02-28T16:56:45;2.83;;;2.40;;
8540;SDS011;4308;51.294;6.590;2023-02-28T16:59:21;4.57;;;3.10;;
8540;SDS011;4308;51.294;6.590;2023-02-28T17:01:49;3.70;;;3.40;;
8540;SDS011;4308;51.294;6.590;2023-02-28T17:04:17;5.57;;;3.07;;
8540;SDS011;4308;51.294;6.590;2023-02-28T17:06:44;4.00;;;2.70;;
8540;SDS011;4308;51.294;6.590;2023-02-28T17:09:17;4.47;;;2.73;;
8540;SDS011;4308;51.294;6.590;2023-02-28T17:11:45;3.33;;;2.90;;
8540;SDS011;4308;51.294;6.590;2023-02-28T17:14:16;4.07;;;3.27;;
8540;SDS011;4308;51.294;6.590;2023-02-28T17:16:43;3.03;;;2.73;;
8540;SDS011;4308;51.294;6.590;2023-02-28T17:19:12;8.60;;;3.50;;
8540;SDS011;4308;51.294;6.590;2023-02-28T17:21:43;3.03;;;2.73;;
8540;SDS011;4308;51.294;6.590;2023-02-28T17:24:11;3.10;;;2.43;;
8540;SDS011;4308;51.294;6.590;2023-02-28T17:26:44;4.50;;;2.47;;
8540;SDS011;4308;51.294;6.590;2023-02-28T17:29:19;6.73;;;3.30;;
8540;SDS011;4308;51.294;6.590;2023-02-28T17:31:47;4.57;;;2.73;;
8540;SDS011;4308;51.294;6.590;2023-02-28T17:34:15;2.93;;;2.63;;
8540;SDS011;4308;51.294;6.590;2023-02-28T17:36:43;3.63;;;3.20;;
8540;SDS011;4308;51.294;6.590;2023-02-28T17:39:12;3.83;;;2.90;;
8540;SDS011;4308;51.294;6.590;2023-02-28T17:41:41;5.80;;;2.83;;
8540;SDS011;4308;51.294;6.590;2023-02-28T17:44:09;4.90;;;3.47;;
8540;SDS011;4308;51.294;6.590;2023-02-28T17:46:39;5.00;;;3.20;;
8540;SDS011;4308;51.294;6.590;2023-02-28T17:49:08;5.00;;;3.00;;